Manilla, Indiana
Current Conditions -  °F | °C
As of 10:53 PM on Tuesday 21 Oct 2014 (Local Time) from KGEZ Reporting Station
Broken Clouds Broken Clouds  
Wind Chill: 45°   Ceiling: 4800
Heat Index: 49°   Visibility: 10mi
Dew Point: 41°   Wind: 9mph
Humidity: 74%   Direction: 30°NNE
Pressure: 30.19"   Gusts: NA
Location:  39.57°N, 85.62°W
Report Text: KGEZ 220253Z AUTO 03008KT 10SM BKN048 09/05 A3019 RMK AO2 SLP223 T00940050 51018
Loading
Personal Weather Stations






























Interactive Weather Map New forecast layout! Learn more

10-Day Weather Forecast

Advertisements
Track Severe Weather on mobile